Rafic Hariri International Airport (BEY/OLBA)


Airport Information
Location: Beirut,
Coordinates: 33.8209 / 35.4884
Field Elevation: 83ft
Longest Runway: 12,514ft
ILS Approaches: YES
Landing Fees: $1,214 per flight
Jet A Price: $0.46/lbs

Current Weather
METAR: OLBA 011000Z 34010KT 8000 NSC 33/17 Q1016 NOSIG
TAF: TAF OLBA 010400Z 0106/0212 35010KT CAVOK BECMG 0115/0118 8000 SCT020 PROB30 TEMPO 0118/0206 5000 BR BECMG 0120/0122 14008KT BECMG 0206/0208 34010KT

No chart available
Flight Arriving
CPX551 EDDK - Cologne Bonn Airport
Germany Cologne, Germany
Flight Aircraft Departing
CPX567
EDDK - Cologne Bonn Airport
Germany Cologne, Germany



Recent Arrivals
Date Flight Type Depart
07/09/2022 CPX567 A30F Cologne Bonn Airport (EDDK)
10/30/2019 CPX939 B738 Liège Airport (EBLG)
10/02/2019 CPX939 B738 Liège Airport (EBLG)
Recent Departures
Date Flight Type Arrive
07/10/2022 CPX551 A30F Cologne Bonn Airport (EDDK)
10/30/2019 CPX938 B738 Liège Airport (EBLG)
10/03/2019 CPX938 B738 Liège Airport (EBLG)